KFAY

Fayetteville Regional / Grannis Field Airport

Fayetteville, North Carolina, USA
METAR KFAY 260353Z 20004KT 10SM CLR 23/20 A3001 RMK AO2 SLP157 T02280200
Observed Flight Rules
May-26 @ 03:53 UTC (26 minutes ago) Visual Flight Rules
Wind Visibility Clouds
200° at 4 knots 10 miles
  • Clear skies
Temperatures Readings
Current 23°C / 73°F
Dewpoint 20°C / 68°F
Humidity 83%
Altimeter 30.01" Hg
Pressure 1015.7 hPa
Elevation 55
METAR KFAY 260353Z 20004KT 10SM CLR 23/20 A3001 RMK AO2 SLP157 T02280200
Observed Flight Rules
May-26 @ 03:53 UTC
(26 minutes ago)
VFR
Wind Visibility
200° at 4 knots 10 miles
Clouds
  • Clear skies
Temperature Dewpoint
23°C / 73°F 20°C / 68°F
Humidity Altimeter Pressure
83% 30.01" Hg 1015.7 hPa